Station Historical Data
Daily Summary for October 18, 2017 Units:  Metric    English   Both
« Previous Day
Next Day »
Daily Weekly Monthly Yearly Custom
  High: Low: Average:
Temperature: 20.2 °C 7.1 °C 12.6 °C
Dew Point: 9.1 °C 5.7 °C 7.3 °C
Humidity: 92% 41% 73%
Wind Speed: 25.9km/h 1.6km/h 7.2km/h
Wind Gust: 25.9km/h - -
Wind- - East
Pressure: 1029 hPa 1025.6 hPa -
Precipitation: 0 mm    
Historical Graphs
 
 
Tabular Data for October 18, 2017
Time Temperature Dew Point Pressure Wind Wind Speed Wind Gust Humidity Rainfall Rate (Hourly) solar Conditions
00:01 9.4 °C 7.6 °C 1027 hPa ESE 1.9 km/h 1.9 km/h 88% 0 mm WeatherDisplay:10.37 W/m2 CLR
00:06 9.4 °C 7.5 °C 1027 hPa ESE 1.9 km/h 1.9 km/h 88% 0 mm WeatherDisplay:10.37 W/m2 CLR
00:11 9.4 °C 7.5 °C 1027 hPa ESE 1.9 km/h 1.9 km/h 88% 0 mm WeatherDisplay:10.37 W/m2 CLR
00:16 9.3 °C 7.4 °C 1027 hPa ESE 1.9 km/h 1.9 km/h 88% 0 mm WeatherDisplay:10.37 W/m2 CLR
00:21 9.4 °C 7.5 °C 1027 hPa ESE 1.9 km/h 1.9 km/h 88% 0 mm WeatherDisplay:10.37 W/m2 CLR
00:26 9.4 °C 7.5 °C 1027 hPa ESE 1.9 km/h 1.9 km/h 88% 0 mm WeatherDisplay:10.37 W/m2 CLR
00:31 9.4 °C 7.5 °C 1027 hPa ESE 1.9 km/h 1.9 km/h 88% 0 mm WeatherDisplay:10.37 W/m2 CLR
00:36 9.4 °C 7.5 °C 1027 hPa ESE 1.9 km/h 1.9 km/h 88% 0 mm WeatherDisplay:10.37 W/m2 CLR
00:41 9.3 °C 7.4 °C 1027 hPa ESE 1.9 km/h 1.9 km/h 88% 0 mm WeatherDisplay:10.37 W/m2 CLR
00:46 9.3 °C 7.4 °C 1027 hPa ESE 1.9 km/h 1.9 km/h 88% 0 mm WeatherDisplay:10.37 W/m2 CLR
00:51 9.3 °C 7.2 °C 1027 hPa ESE 1.9 km/h 1.9 km/h 87% 0 mm WeatherDisplay:10.37 W/m2 CLR
00:56 9.3 °C 7.1 °C 1027 hPa ESE 1.9 km/h 1.9 km/h 86% 0 mm WeatherDisplay:10.37 W/m2 CLR
01:01 9.3 °C 7.3 °C 1027 hPa ESE 1.9 km/h 1.9 km/h 87% 0 mm WeatherDisplay:10.37 W/m2 CLR
01:06 9.2 °C 7.2 °C 1027 hPa ESE 1.9 km/h 1.9 km/h 87% 0 mm WeatherDisplay:10.37 W/m2 CLR
01:11 9.2 °C 7.3 °C 1027 hPa ESE 1.9 km/h 1.9 km/h 88% 0 mm WeatherDisplay:10.37 W/m2 CLR
01:16 9.1 °C 7.2 °C 1027 hPa ESE 1.9 km/h 1.9 km/h 88% 0 mm WeatherDisplay:10.37 W/m2 CLR
01:21 9 °C 7.1 °C 1027 hPa ESE 1.9 km/h 1.9 km/h 88% 0 mm WeatherDisplay:10.37 W/m2 CLR
01:26 8.9 °C 7 °C 1027 hPa ESE 1.9 km/h 1.9 km/h 88% 0 mm WeatherDisplay:10.37 W/m2 CLR
01:31 8.8 °C 6.9 °C 1027 hPa ESE 1.9 km/h 1.9 km/h 88% 0 mm WeatherDisplay:10.37 W/m2 CLR
01:36 8.8 °C 7.1 °C 1027 hPa ESE 1.9 km/h 1.9 km/h 89% 0 mm WeatherDisplay:10.37 W/m2 CLR
01:41 8.7 °C 7 °C 1027 hPa ESE 1.9 km/h 1.9 km/h 89% 0 mm WeatherDisplay:10.37 W/m2 CLR
01:46 8.6 °C 6.9 °C 1027 hPa ESE 1.9 km/h 1.9 km/h 89% 0 mm WeatherDisplay:10.37 W/m2 CLR
01:51 8.5 °C 6.8 °C 1027 hPa ESE 1.9 km/h 1.9 km/h 89% 0 mm WeatherDisplay:10.37 W/m2 CLR
01:54 8.5 °C 6.8 °C 1027 hPa ESE 1.9 km/h 1.9 km/h 89% 0 mm WeatherDisplay:10.37 W/m2 CLR
02:00 8.4 °C 6.9 °C 1027 hPa ESE 1.9 km/h 1.9 km/h 90% 0 mm WeatherDisplay:10.37 W/m2 CLR
02:05 8.3 °C 6.6 °C 1027 hPa ESE 1.9 km/h 1.9 km/h 89% 0 mm WeatherDisplay:10.37 W/m2 CLR
02:10 8.3 °C 6.6 °C 1027 hPa ESE 1.9 km/h 1.9 km/h 89% 0 mm WeatherDisplay:10.37 W/m2 CLR
02:15 8.2 °C 6.7 °C 1027 hPa ESE 1.6 km/h 1.6 km/h 90% 0 mm WeatherDisplay:10.37 W/m2 CLR
02:20 8.2 °C 6.7 °C 1027 hPa ESE 1.6 km/h 1.6 km/h 90% 0 mm WeatherDisplay:10.37 W/m2 CLR
02:25 8.2 °C 6.6 °C 1026.6 hPa ESE 1.6 km/h 1.6 km/h 90% 0 mm WeatherDisplay:10.37 W/m2 CLR
02:30 8.1 °C 6.6 °C 1026.6 hPa ESE 1.6 km/h 1.6 km/h 90% 0 mm WeatherDisplay:10.37 W/m2 CLR
02:35 8.1 °C 6.5 °C 1027 hPa ESE 1.9 km/h   90% 0 mm WeatherDisplay:10.37 W/m2 CLR
02:40 8 °C 6.4 °C 1027 hPa ESE 1.9 km/h   90% 0 mm WeatherDisplay:10.37 W/m2 CLR
02:45 8 °C 6.4 °C 1027 hPa ESE 1.9 km/h 1.9 km/h 90% 0 mm WeatherDisplay:10.37 W/m2 CLR
02:50 8 °C 6.4 °C 1027 hPa ESE 1.9 km/h 1.9 km/h 90% 0 mm WeatherDisplay:10.37 W/m2 CLR
02:55 7.9 °C 6.4 °C 1027 hPa ESE 1.9 km/h 1.9 km/h 90% 0 mm WeatherDisplay:10.37 W/m2 CLR
03:00 7.9 °C 6.4 °C 1027 hPa ESE 1.9 km/h 1.9 km/h 90% 0 mm WeatherDisplay:10.37 W/m2 CLR
03:05 7.9 °C 6.3 °C 1027 hPa ESE 1.9 km/h 1.9 km/h 90% 0 mm WeatherDisplay:10.37 W/m2 CLR
03:10 7.8 °C 6.3 °C 1027 hPa ESE 1.9 km/h 1.9 km/h 90% 0 mm WeatherDisplay:10.37 W/m2 CLR
03:15 7.8 °C 6.2 °C 1027 hPa ESE 1.9 km/h 1.9 km/h 90% 0 mm WeatherDisplay:10.37 W/m2 CLR
03:20 7.7 °C 6.2 °C 1026.6 hPa ESE 1.9 km/h 1.9 km/h 90% 0 mm WeatherDisplay:10.37 W/m2 CLR
03:25 7.7 °C 6.1 °C 1026.6 hPa ESE 1.9 km/h 1.9 km/h 90% 0 mm WeatherDisplay:10.37 W/m2 CLR
03:30 7.6 °C 6.1 °C 1026.6 hPa ESE 1.9 km/h 1.9 km/h 90% 0 mm WeatherDisplay:10.37 W/m2 CLR
03:35 7.6 °C 6.1 °C 1026.6 hPa ESE 1.9 km/h 1.9 km/h 90% 0 mm WeatherDisplay:10.37 W/m2 CLR
03:40 7.7 °C 6.3 °C 1026.6 hPa ESE 1.9 km/h 1.9 km/h 91% 0 mm WeatherDisplay:10.37 W/m2 CLR
03:45 7.7 °C 6.3 °C 1026.6 hPa ESE 1.9 km/h 1.9 km/h 91% 0 mm WeatherDisplay:10.37 W/m2 CLR
03:50 7.7 °C 6.3 °C 1026.6 hPa ESE 1.9 km/h 1.9 km/h 91% 0 mm WeatherDisplay:10.37 W/m2 CLR
03:55 7.8 °C 6.2 °C 1026.6 hPa ESE 1.9 km/h 1.9 km/h 90% 0 mm WeatherDisplay:10.37 W/m2 CLR
04:01 7.8 °C 6.3 °C 1026.6 hPa ESE 1.9 km/h 1.9 km/h 90% 0 mm WeatherDisplay:10.37 W/m2 CLR
04:06 7.9 °C 6.3 °C 1026.6 hPa NE 5.6 km/h 5.6 km/h 90% 0 mm WeatherDisplay:10.37 W/m2 CLR
04:11 7.9 °C 6.2 °C 1026.3 hPa NE 5.6 km/h 5.6 km/h 89% 0 mm WeatherDisplay:10.37 W/m2 CLR
04:16 7.9 °C 6.2 °C 1026.3 hPa NE 5.6 km/h 5.6 km/h 89% 0 mm WeatherDisplay:10.37 W/m2 CLR
04:21 7.8 °C 6.1 °C 1026.3 hPa NE 5.6 km/h 5.6 km/h 89% 0 mm WeatherDisplay:10.37 W/m2 CLR
04:26 7.8 °C 6.1 °C 1026.3 hPa NE 5.6 km/h 5.6 km/h 89% 0 mm WeatherDisplay:10.37 W/m2 CLR
04:31 7.9 °C 6.2 °C 1026.3 hPa NE 5.6 km/h 5.6 km/h 89% 0 mm WeatherDisplay:10.37 W/m2 CLR
04:36 7.9 °C 6.2 °C 1026.3 hPa NE 5.6 km/h 5.6 km/h 89% 0 mm WeatherDisplay:10.37 W/m2 CLR
04:41 7.9 °C 6.2 °C 1026.6 hPa NE 5.6 km/h 5.6 km/h 89% 0 mm WeatherDisplay:10.37 W/m2 CLR
04:46 7.9 °C 6.2 °C 1026.6 hPa NE 5.6 km/h 5.6 km/h 89% 0 mm WeatherDisplay:10.37 W/m2 CLR
04:51 7.9 °C 6.2 °C 1026.6 hPa NE 5.6 km/h 5.6 km/h 89% 0 mm WeatherDisplay:10.37 W/m2 CLR
04:56 7.9 °C 6.2 °C 1026.6 hPa NE 5.6 km/h 5.6 km/h 89% 0 mm WeatherDisplay:10.37 W/m2 CLR
05:01 7.9 °C 6.2 °C 1026.6 hPa NE 5.6 km/h 5.6 km/h 89% 0 mm WeatherDisplay:10.37 W/m2 CLR
05:06 7.8 °C 6.1 °C 1027 hPa NE 3.7 km/h 3.7 km/h 89% 0 mm WeatherDisplay:10.37 W/m2 CLR
05:11 7.8 °C 6.1 °C 1026.6 hPa NE 3.7 km/h 3.7 km/h 89% 0 mm WeatherDisplay:10.37 W/m2 CLR
05:17 7.7 °C 6 °C 1026.6 hPa NE 3.7 km/h 3.7 km/h 89% 0 mm WeatherDisplay:10.37 W/m2 CLR
05:22 7.6 °C 5.9 °C 1027 hPa NE 3.7 km/h 3.7 km/h 89% 0 mm WeatherDisplay:10.37 W/m2 CLR
05:27 7.6 °C 6.1 °C 1027 hPa NE 3.7 km/h 3.7 km/h 90% 0 mm WeatherDisplay:10.37 W/m2 CLR
05:32 7.6 °C 6.1 °C 1027 hPa NE 3.7 km/h 3.7 km/h 90% 0 mm WeatherDisplay:10.37 W/m2 CLR
05:37 7.7 °C 6.2 °C 1027 hPa NE 3.7 km/h 3.7 km/h 90% 0 mm WeatherDisplay:10.37 W/m2 CLR
05:42 7.7 °C 6.2 °C 1027 hPa NE 3.7 km/h 3.7 km/h 90% 0 mm WeatherDisplay:10.37 W/m2 CLR
05:47 7.7 °C 6.1 °C 1027 hPa NE 3.7 km/h 3.7 km/h 90% 0 mm WeatherDisplay:10.37 W/m2 CLR
05:52 7.6 °C 6 °C 1027 hPa NE 3.7 km/h 3.7 km/h 90% 0 mm WeatherDisplay:10.37 W/m2 CLR
05:57 7.6 °C 6 °C 1027.3 hPa NE 3.7 km/h 3.7 km/h 90% 0 mm WeatherDisplay:10.37 W/m2 CLR
06:02 7.6 °C 6 °C 1027.3 hPa NE 5.6 km/h 5.6 km/h 90% 0 mm WeatherDisplay:10.37 W/m2 CLR
06:07 7.6 °C 6 °C 1027.3 hPa NE 5.6 km/h 5.6 km/h 90% 0 mm WeatherDisplay:10.37 W/m2 CLR
06:12 7.6 °C 6.1 °C 1027.3 hPa NE 5.6 km/h 5.6 km/h 90% 0 mm WeatherDisplay:10.37 W/m2 CLR
06:17 7.7 °C 6.1 °C 1027.3 hPa NE 5.6 km/h 5.6 km/h 90% 0 mm WeatherDisplay:10.37 W/m2 CLR
06:22 7.7 °C 6.1 °C 1027.3 hPa NE 5.6 km/h 5.6 km/h 90% 0 mm WeatherDisplay:10.37 W/m2 CLR
06:27 7.6 °C 6 °C 1027.3 hPa NE 5.6 km/h 5.6 km/h 90% 0 mm WeatherDisplay:10.37 W/m2 CLR
06:32 7.5 °C 5.9 °C 1027.7 hPa NE 5.6 km/h 5.6 km/h 90% 0 mm WeatherDisplay:10.37 W/m2 CLR
06:37 7.4 °C 5.9 °C 1027.7 hPa NE 5.6 km/h 5.6 km/h 90% 0 mm WeatherDisplay:10.37 W/m2 CLR
06:42 7.4 °C 5.8 °C 1027.7 hPa NE 5.6 km/h 5.6 km/h 90% 0 mm WeatherDisplay:10.37 W/m2 CLR
06:48 7.4 °C 5.8 °C 1027.7 hPa NE 5.6 km/h 5.6 km/h 90% 0 mm WeatherDisplay:10.37 W/m2 CLR
06:53 7.3 °C 5.7 °C 1027.7 hPa NE 5.6 km/h 5.6 km/h 90% 0 mm WeatherDisplay:10.37 W/m2 CLR
06:58 7.2 °C 5.7 °C 1027.7 hPa NE 5.6 km/h 5.6 km/h 90% 0 mm WeatherDisplay:10.37 W/m2 CLR
07:03 7.2 °C 5.8 °C 1027.7 hPa ENE 5.6 km/h 5.6 km/h 91% 0 mm WeatherDisplay:10.37 W/m2 CLR
07:08 7.2 °C 5.8 °C 1028 hPa ENE 5.6 km/h 5.6 km/h 91% 0 mm WeatherDisplay:10.37 W/m2 CLR
07:13 7.2 °C 5.8 °C 1028 hPa ENE 5.6 km/h 5.6 km/h 91% 0 mm WeatherDisplay:10.37 W/m2 CLR
07:18 7.2 °C 5.8 °C 1028 hPa ENE 5.6 km/h 5.6 km/h 91% 0 mm WeatherDisplay:10.37 W/m2 CLR
07:23 7.1 °C 5.7 °C 1028 hPa ENE 5.6 km/h 5.6 km/h 91% 0 mm WeatherDisplay:10.37 W/m2 CLR
07:28 7.2 °C 5.8 °C 1028 hPa ENE 5.6 km/h 5.6 km/h 91% 0 mm WeatherDisplay:10.37 W/m2 CLR
07:33 7.1 °C 5.7 °C 1028 hPa ENE 5.6 km/h 5.6 km/h 91% 0 mm WeatherDisplay:10.37 W/m2 CLR
07:39 7.1 °C 5.7 °C 1028 hPa ENE 5.6 km/h 5.6 km/h 91% 0 mm WeatherDisplay:10.37 W/m2 CLR
07:44 7.2 °C 5.9 °C 1028 hPa ENE 5.6 km/h 5.6 km/h 92% 0 mm WeatherDisplay:10.37 W/m2 CLR
07:49 7.3 °C 6.1 °C 1028 hPa ENE 5.6 km/h 5.6 km/h 92% 0 mm WeatherDisplay:10.37 W/m2 CLR
07:54 7.3 °C 6.1 °C 1028 hPa ENE 5.6 km/h 5.6 km/h 92% 0 mm WeatherDisplay:10.37 W/m2 CLR
07:59 7.3 °C 6.1 °C 1028 hPa ENE 5.6 km/h 5.6 km/h 92% 0 mm WeatherDisplay:10.37 W/m2 CLR
08:04 7.4 °C 6.2 °C 1028 hPa NE 3.7 km/h 3.7 km/h 92% 0 mm WeatherDisplay:10.37 W/m2 FEW
08:09 7.4 °C 6.1 °C 1028 hPa NE 3.7 km/h 3.7 km/h 91% 0 mm WeatherDisplay:10.37 W/m2 FEW
08:19 7.4 °C 6.1 °C 1028.3 hPa NE 3.7 km/h 3.7 km/h 91% 0 mm WeatherDisplay:10.37 W/m2 FEW
08:24 7.5 °C 6.1 °C 1028.3 hPa NE 3.7 km/h 3.7 km/h 91% 0 mm WeatherDisplay:10.37 W/m2 FEW
08:29 7.6 °C 6.3 °C 1028.3 hPa NE 3.7 km/h 3.7 km/h 92% 0 mm WeatherDisplay:10.37 W/m2 FEW
08:34 7.7 °C 6.4 °C 1028.3 hPa NE 3.7 km/h 3.7 km/h 92% 0 mm WeatherDisplay:10.37 W/m2 FEW
08:39 7.8 °C 6.6 °C 1028.7 hPa NE 3.7 km/h 3.7 km/h 92% 0 mm WeatherDisplay:10.37 W/m2 FEW
08:44 7.9 °C 6.7 °C 1028.3 hPa NE 3.7 km/h 3.7 km/h 92% 0 mm WeatherDisplay:10.37 W/m2 FEW
08:49 8.3 °C 6.9 °C 1028.7 hPa NE 3.7 km/h 3.7 km/h 91% 0 mm WeatherDisplay:10.37 W/m2 FEW
08:54 8.7 °C 7.1 °C 1028.7 hPa NE 3.7 km/h 3.7 km/h 90% 0 mm WeatherDisplay:10.37 W/m2 FEW
08:59 9 °C 7.1 °C 1028.7 hPa NE 3.7 km/h 3.7 km/h 88% 0 mm WeatherDisplay:10.37 W/m2 FEW
09:04 9.3 °C 7.1 °C 1028.7 hPa ENE 9.3 km/h 9.3 km/h 86% 0 mm WeatherDisplay:10.37 W/m2 FEW
09:09 9.4 °C 7.2 °C 1028.7 hPa ENE 9.3 km/h 9.3 km/h 86% 0 mm WeatherDisplay:10.37 W/m2 FEW
09:14 9.7 °C 7.3 °C 1028.7 hPa ENE 9.3 km/h 9.3 km/h 85% 0 mm WeatherDisplay:10.37 W/m2 FEW
09:20 9.9 °C 7.1 °C 1028.7 hPa ENE 9.3 km/h 9.3 km/h 83% 0 mm WeatherDisplay:10.37 W/m2 FEW
09:25 10.1 °C 7.3 °C 1028.7 hPa ENE 9.3 km/h 9.3 km/h 83% 0 mm WeatherDisplay:10.37 W/m2 FEW
09:30 10.3 °C 7.3 °C 1028.7 hPa ENE 9.3 km/h 9.3 km/h 82% 0 mm WeatherDisplay:10.37 W/m2 FEW
09:35 10.5 °C 7.2 °C 1028.7 hPa ENE 9.7 km/h 9.7 km/h 80% 0 mm WeatherDisplay:10.37 W/m2 FEW
09:40 10.7 °C 7.4 °C 1028.7 hPa ENE 9.7 km/h 9.7 km/h 80% 0 mm WeatherDisplay:10.37 W/m2 FEW
09:45 10.9 °C 7.2 °C 1029 hPa ENE 9.7 km/h 9.7 km/h 78% 0 mm WeatherDisplay:10.37 W/m2 FEW
09:50 11.1 °C 7.6 °C 1029 hPa ENE 9.7 km/h 9.7 km/h 79% 0 mm WeatherDisplay:10.37 W/m2 FEW
09:55 11.3 °C 7.8 °C 1029 hPa ENE 9.3 km/h 9.3 km/h 79% 0 mm WeatherDisplay:10.37 W/m2 FEW
10:00 11.5 °C 8 °C 1029 hPa ENE 9.3 km/h 9.3 km/h 79% 0 mm WeatherDisplay:10.37 W/m2 FEW
10:05 11.7 °C 7.6 °C 1029 hPa East 9.3 km/h 9.3 km/h 76% 0 mm WeatherDisplay:10.37 W/m2 FEW
10:10 11.9 °C 7.6 °C 1029 hPa East 9.3 km/h 9.3 km/h 75% 0 mm WeatherDisplay:10.37 W/m2 FEW
10:12 12.1 °C 7.8 °C 1029 hPa East 9.3 km/h 9.3 km/h 75% 0 mm WeatherDisplay:10.37 W/m2 FEW
10:17 12.2 °C 7.3 °C 1029 hPa East 9.3 km/h 9.3 km/h 72% 0 mm WeatherDisplay:10.37 W/m2 FEW
10:22 12.4 °C 7.3 °C 1029 hPa East 9.3 km/h 9.3 km/h 71% 0 mm WeatherDisplay:10.37 W/m2 FEW
10:27 12.7 °C 7.3 °C 1029 hPa East 9.3 km/h 9.3 km/h 70% 0 mm WeatherDisplay:10.37 W/m2 FEW
10:32 13 °C 7.7 °C 1029 hPa East 9.3 km/h 9.3 km/h 70% 0 mm WeatherDisplay:10.37 W/m2 FEW
10:38 13.4 °C 8.3 °C 1029 hPa East 9.3 km/h 9.3 km/h 71% 0 mm WeatherDisplay:10.37 W/m2 FEW
10:43 13.8 °C 8.2 °C 1029 hPa East 9.3 km/h 9.3 km/h 69% 0 mm WeatherDisplay:10.37 W/m2 FEW
10:48 14.2 °C 8.2 °C 1029 hPa East 9.3 km/h 9.3 km/h 67% 0 mm WeatherDisplay:10.37 W/m2 FEW
10:53 14.5 °C 7.8 °C 1029 hPa East 9.3 km/h 9.3 km/h 64% 0 mm WeatherDisplay:10.37 W/m2 FEW
10:58 14.7 °C 7.4 °C 1029 hPa East 9.3 km/h 9.3 km/h 62% 0 mm WeatherDisplay:10.37 W/m2 FEW
11:03 14.9 °C 7.4 °C 1029 hPa East 16.7 km/h 16.7 km/h 61% 0 mm WeatherDisplay:10.37 W/m2 FEW
11:08 15.2 °C 7.7 °C 1029 hPa East 16.7 km/h 16.7 km/h 61% 0 mm WeatherDisplay:10.37 W/m2 FEW
11:13 15.6 °C 8.1 °C 1029 hPa East 16.7 km/h 16.7 km/h 61% 0 mm WeatherDisplay:10.37 W/m2 FEW
11:18 16 °C 8 °C 1029 hPa East 16.7 km/h 16.7 km/h 59% 0 mm WeatherDisplay:10.37 W/m2 FEW
11:23 16.4 °C 7.8 °C 1029 hPa East 16.7 km/h 16.7 km/h 57% 0 mm WeatherDisplay:10.37 W/m2 FEW
11:28 16.6 °C 7.8 °C 1029 hPa East 16.7 km/h 16.7 km/h 56% 0 mm WeatherDisplay:10.37 W/m2 FEW
11:29 16.7 °C 8.1 °C 1029 hPa East 16.7 km/h 16.7 km/h 57% 0 mm WeatherDisplay:10.37 W/m2 FEW
11:34 16.8 °C 7.4 °C 1029 hPa East 16.7 km/h 16.7 km/h 54% 0 mm WeatherDisplay:10.37 W/m2 FEW
11:40 16.9 °C 8.1 °C 1029 hPa East 16.7 km/h 16.7 km/h 56% 0 mm WeatherDisplay:10.37 W/m2 FEW
11:45 17.1 °C 6.9 °C 1029 hPa East 16.1 km/h 16.1 km/h 51% 0 mm WeatherDisplay:10.37 W/m2 FEW
11:50 17.1 °C 7.7 °C 1029 hPa East 16.7 km/h 16.7 km/h 54% 0 mm WeatherDisplay:10.37 W/m2 FEW
11:55 17.2 °C 7.8 °C 1029 hPa East 16.1 km/h 16.1 km/h 54% 0 mm WeatherDisplay:10.37 W/m2 FEW
12:00 17.3 °C 7.1 °C 1028.7 hPa East 16.1 km/h 16.1 km/h 51% 0 mm WeatherDisplay:10.37 W/m2 FEW
12:05 17.3 °C 7.4 °C 1029 hPa East 25.7 km/h 25.7 km/h 52% 0 mm WeatherDisplay:10.37 W/m2 FEW
12:10 17.3 °C 7.4 °C 1029 hPa East 25.7 km/h 25.7 km/h 52% 0 mm WeatherDisplay:10.37 W/m2 FEW
12:15 17.4 °C 7.2 °C 1029 hPa East 25.7 km/h 25.7 km/h 51% 0 mm WeatherDisplay:10.37 W/m2 FEW
12:20 17.4 °C 7.2 °C 1029 hPa East 25.7 km/h 25.7 km/h 51% 0 mm WeatherDisplay:10.37 W/m2 FEW
12:25 17.3 °C 7 °C 1028.7 hPa East 25.7 km/h 25.7 km/h 51% 0 mm WeatherDisplay:10.37 W/m2 FEW
12:30 17.3 °C 7.1 °C 1028.7 hPa East 25.9 km/h 25.9 km/h 51% 0 mm WeatherDisplay:10.37 W/m2 FEW
12:35 17.3 °C 7.1 °C 1028.7 hPa East 25.9 km/h 25.9 km/h 51% 0 mm WeatherDisplay:10.37 W/m2 FEW
12:40 17.4 °C 6.8 °C 1028.7 hPa East 25.7 km/h 25.7 km/h 50% 0 mm WeatherDisplay:10.37 W/m2 FEW
12:45 17.4 °C 7.2 °C 1028.3 hPa East 25.7 km/h 25.7 km/h 51% 0 mm WeatherDisplay:10.37 W/m2 FEW
12:50 17.7 °C 7.4 °C 1028.3 hPa East 25.7 km/h 25.7 km/h 51% 0 mm WeatherDisplay:10.37 W/m2 FEW
12:55 17.8 °C 6.9 °C 1028.3 hPa East 25.9 km/h 25.9 km/h 49% 0 mm WeatherDisplay:10.37 W/m2 FEW
13:00 17.8 °C 7.5 °C 1028.3 hPa East 25.9 km/h 25.9 km/h 51% 0 mm WeatherDisplay:10.37 W/m2 FEW
13:05 17.8 °C 7.5 °C 1028 hPa East 14.8 km/h 14.8 km/h 51% 0 mm WeatherDisplay:10.37 W/m2 FEW
13:10 17.9 °C 7 °C 1028 hPa East 14.8 km/h 14.8 km/h 49% 0 mm WeatherDisplay:10.37 W/m2 FEW
13:15 17.9 °C 7.7 °C 1028 hPa East 14.8 km/h 14.8 km/h 51% 0 mm WeatherDisplay:10.37 W/m2 FEW
13:20 18 °C 7.4 °C 1028 hPa East 14.8 km/h 14.8 km/h 50% 0 mm WeatherDisplay:10.37 W/m2 FEW
13:21 18 °C 7.4 °C 1028 hPa East 14.8 km/h 14.8 km/h 50% 0 mm WeatherDisplay:10.37 W/m2 FEW
13:26 18.2 °C 7.3 °C 1028 hPa East 14.8 km/h 14.8 km/h 49% 0 mm WeatherDisplay:10.37 W/m2 FEW
13:31 18.2 °C 7.3 °C 1027.7 hPa East 14.8 km/h 14.8 km/h 49% 0 mm WeatherDisplay:10.37 W/m2 FEW
13:36 18.3 °C 7.4 °C 1027.7 hPa East 14.8 km/h 14.8 km/h 49% 0 mm WeatherDisplay:10.37 W/m2 FEW
13:41 18.7 °C 7.4 °C 1027.7 hPa East 14.8 km/h 14.8 km/h 48% 0 mm WeatherDisplay:10.37 W/m2 FEW
13:46 18.8 °C 6.9 °C 1027.7 hPa East 14.8 km/h 14.8 km/h 46% 0 mm WeatherDisplay:10.37 W/m2 FEW
13:51 19 °C 6.8 °C 1027.3 hPa East 14.8 km/h 14.8 km/h 45% 0 mm WeatherDisplay:10.37 W/m2 FEW
13:56 19.1 °C 6.9 °C 1027.3 hPa East 14.8 km/h 14.8 km/h 45% 0 mm WeatherDisplay:10.37 W/m2 FEW
14:01 19.3 °C 6.7 °C 1027.3 hPa ESE 14.8 km/h 14.8 km/h 44% 0 mm WeatherDisplay:10.37 W/m2 FEW
14:06 19.6 °C 7.3 °C 1027.3 hPa ESE 13 km/h 13 km/h 45% 0 mm WeatherDisplay:10.37 W/m2 FEW
14:11 19.7 °C 7.8 °C 1027 hPa ESE 13 km/h 13 km/h 46% 0 mm WeatherDisplay:10.37 W/m2 FEW
14:16 20.2 °C 6.8 °C 1027 hPa ESE 13 km/h 13 km/h 42% 0 mm WeatherDisplay:10.37 W/m2 FEW
14:22 19.8 °C 6.2 °C 1027 hPa ESE 13 km/h 13 km/h 41% 0 mm WeatherDisplay:10.37 W/m2 FEW
14:27 19.7 °C 7.1 °C 1027 hPa ESE 13 km/h 13 km/h 44% 0 mm WeatherDisplay:10.37 W/m2 FEW
14:32 19.8 °C 7.8 °C 1027 hPa ESE 13 km/h 13 km/h 46% 0 mm WeatherDisplay:10.37 W/m2 FEW
14:37 19.9 °C 7 °C 1027 hPa ESE 13 km/h 13 km/h 43% 0 mm WeatherDisplay:10.37 W/m2 FEW
14:42 19.9 °C 6.9 °C 1026.6 hPa ESE 13 km/h 13 km/h 43% 0 mm WeatherDisplay:10.37 W/m2 FEW
14:47 19.9 °C 7.3 °C 1026.6 hPa ESE 13 km/h 13 km/h 44% 0 mm WeatherDisplay:10.37 W/m2 FEW
14:52 19.9 °C 7.7 °C 1026.6 hPa ESE 13 km/h 13 km/h 45% 0 mm WeatherDisplay:10.37 W/m2 FEW
14:57 19.8 °C 7.2 °C 1026.6 hPa ESE 13 km/h 13 km/h 44% 0 mm WeatherDisplay:10.37 W/m2 FEW
15:02 19.8 °C 7.5 °C 1026.3 hPa ESE 13 km/h 13 km/h 45% 0 mm WeatherDisplay:10.37 W/m2 FEW
15:07 19.8 °C 7.2 °C 1026.3 hPa ESE 11.1 km/h 11.1 km/h 44% 0 mm WeatherDisplay:10.37 W/m2 FEW
15:12 19.8 °C 7.5 °C 1026.3 hPa ESE 11.1 km/h 11.1 km/h 45% 0 mm WeatherDisplay:10.37 W/m2 FEW
15:17 19.6 °C 7.3 °C 1026.3 hPa ESE 11.1 km/h 11.1 km/h 45% 0 mm WeatherDisplay:10.37 W/m2 FEW
15:22 19.6 °C 5.9 °C 1026.3 hPa ESE 11.1 km/h 11.1 km/h 41% 0 mm WeatherDisplay:10.37 W/m2 FEW
15:27 19.5 °C 6.6 °C 1026 hPa ESE 11.1 km/h 11.1 km/h 43% 0 mm WeatherDisplay:10.37 W/m2 FEW
15:32 19.6 °C 6.6 °C 1026.3 hPa ESE 11.1 km/h 11.1 km/h 43% 0 mm WeatherDisplay:10.37 W/m2 FEW
15:37 19.6 °C 7 °C 1026.3 hPa ESE 11.1 km/h 11.1 km/h 44% 0 mm WeatherDisplay:10.37 W/m2 FEW
15:42 19.6 °C 6.3 °C 1026 hPa ESE 11.1 km/h 11.1 km/h 42% 0 mm WeatherDisplay:10.37 W/m2 FEW
15:47 19.6 °C 6.3 °C 1026 hPa ESE 11.1 km/h 11.1 km/h 42% 0 mm WeatherDisplay:10.37 W/m2 FEW
15:52 19.6 °C 5.9 °C 1026 hPa ESE 11.1 km/h 11.1 km/h 41% 0 mm WeatherDisplay:10.37 W/m2 FEW
15:57 19.6 °C 6.7 °C 1026 hPa ESE 11.1 km/h 11.1 km/h 43% 0 mm WeatherDisplay:10.37 W/m2 FEW
16:02 19.6 °C 6.6 °C 1026 hPa East 11.1 km/h 11.1 km/h 43% 0 mm WeatherDisplay:10.37 W/m2 CLR
16:07 19.6 °C 7.3 °C 1026 hPa East 9.3 km/h 9.3 km/h 45% 0 mm WeatherDisplay:10.37 W/m2 CLR
16:12 19.6 °C 7.3 °C 1026 hPa East 9.3 km/h 9.3 km/h 45% 0 mm WeatherDisplay:10.37 W/m2 CLR
16:17 19.6 °C 6.9 °C 1026 hPa East 9.3 km/h 9.3 km/h 44% 0 mm WeatherDisplay:10.37 W/m2 CLR
16:23 19.5 °C 6.9 °C 1026 hPa East 9.3 km/h 9.3 km/h 44% 0 mm WeatherDisplay:10.37 W/m2 CLR
16:28 19.5 °C 7.6 °C 1026 hPa East 9.3 km/h 9.3 km/h 46% 0 mm WeatherDisplay:10.37 W/m2 CLR
16:30 19.5 °C 7.2 °C 1026 hPa East 9.7 km/h 9.7 km/h 45% 0 mm WeatherDisplay:10.37 W/m2 CLR
16:35 19.5 °C 7.2 °C 1026 hPa East 9.3 km/h 9.3 km/h 45% 0 mm WeatherDisplay:10.37 W/m2 CLR
16:40 19.6 °C 7.6 °C 1026 hPa East 9.3 km/h 9.3 km/h 46% 0 mm WeatherDisplay:10.37 W/m2 CLR
16:46 19.5 °C 7.9 °C 1026 hPa East 9.3 km/h 9.3 km/h 47% 0 mm WeatherDisplay:10.37 W/m2 CLR
16:51 19.4 °C 6.8 °C 1025.6 hPa East 9.3 km/h 9.3 km/h 44% 0 mm WeatherDisplay:10.37 W/m2 CLR
16:57 19.4 °C 6.8 °C 1025.6 hPa East 9.3 km/h 9.3 km/h 44% 0 mm WeatherDisplay:10.37 W/m2 CLR
17:13 19.1 °C 8.4 °C 1025.6 hPa ENE 7.4 km/h 7.4 km/h 50% 0 mm WeatherDisplay:10.37 W/m2 CLR
17:18 18.9 °C 7.9 °C 1025.6 hPa ENE 7.4 km/h 7.4 km/h 49% 0 mm WeatherDisplay:10.37 W/m2 CLR
17:23 18.8 °C 8.7 °C 1025.6 hPa ENE 7.4 km/h 7.4 km/h 52% 0 mm WeatherDisplay:10.37 W/m2 CLR
17:28 18.6 °C 9.1 °C 1025.6 hPa ENE 7.4 km/h 7.4 km/h 54% 0 mm WeatherDisplay:10.37 W/m2 CLR
17:33 18.3 °C 8.6 °C 1025.6 hPa ENE 7.4 km/h 7.4 km/h 53% 0 mm WeatherDisplay:10.37 W/m2 CLR
17:39 18.2 °C 8.4 °C 1025.6 hPa ENE 7.4 km/h 7.4 km/h 53% 0 mm WeatherDisplay:10.37 W/m2 CLR
17:44 18.1 °C 8.3 °C 1025.6 hPa ENE 7.4 km/h 7.4 km/h 53% 0 mm WeatherDisplay:10.37 W/m2 CLR
17:49 17.9 °C 8.7 °C 1025.6 hPa ENE 7.4 km/h 7.4 km/h 55% 0 mm WeatherDisplay:10.37 W/m2 CLR
17:54 17.7 °C 8.5 °C 1025.6 hPa ENE 7.4 km/h 7.4 km/h 55% 0 mm WeatherDisplay:10.37 W/m2 CLR
17:59 17.5 °C 8.6 °C 1025.6 hPa ENE 7.4 km/h 7.4 km/h 56% 0 mm WeatherDisplay:10.37 W/m2 CLR
18:04 17.3 °C 8.7 °C 1025.6 hPa ENE 5.6 km/h 5.6 km/h 57% 0 mm WeatherDisplay:10.37 W/m2 CLR
18:09 17.2 °C 8.9 °C 1025.6 hPa ENE 5.6 km/h 5.6 km/h 58% 0 mm WeatherDisplay:10.37 W/m2 CLR
18:12 17.1 °C 9.1 °C 1025.6 hPa ENE 5.6 km/h 5.6 km/h 59% 0 mm WeatherDisplay:10.37 W/m2 CLR
18:17 17 °C 8.9 °C 1025.6 hPa ENE 5.6 km/h 5.6 km/h 59% 0 mm WeatherDisplay:10.37 W/m2 CLR
18:22 16.8 °C 9 °C 1025.6 hPa ENE 5.6 km/h 5.6 km/h 60% 0 mm WeatherDisplay:10.37 W/m2 CLR
18:23 16.8 °C 8.9 °C 1025.6 hPa ENE 5.6 km/h 5.6 km/h 60% 0 mm WeatherDisplay:10.37 W/m2 CLR
18:28 16.7 °C 8.9 °C 1025.6 hPa ENE 5.6 km/h 5.6 km/h 60% 0 mm WeatherDisplay:10.37 W/m2 CLR
18:33 16.5 °C 8.9 °C 1025.6 hPa ENE 5.6 km/h 5.6 km/h 61% 0 mm WeatherDisplay:10.37 W/m2 CLR
18:38 16.4 °C 8.8 °C 1025.6 hPa ENE 5.6 km/h 5.6 km/h 61% 0 mm WeatherDisplay:10.37 W/m2 CLR
18:43 16.2 °C 8.9 °C 1025.6 hPa ENE 5.6 km/h 5.6 km/h 62% 0 mm WeatherDisplay:10.37 W/m2 CLR
18:48 16.1 °C 8.8 °C 1025.6 hPa ENE 5.6 km/h 5.6 km/h 62% 0 mm WeatherDisplay:10.37 W/m2 CLR
18:53 15.9 °C 8.4 °C 1026 hPa ENE 5.6 km/h 5.6 km/h 61% 0 mm WeatherDisplay:10.37 W/m2 CLR
18:58 15.8 °C 8.5 °C 1026 hPa ENE 5.6 km/h 5.6 km/h 62% 0 mm WeatherDisplay:10.37 W/m2 CLR
19:03 15.6 °C 8.3 °C 1026 hPa ENE 5.6 km/h 5.6 km/h 62% 0 mm WeatherDisplay:10.37 W/m2 CLR
19:08 15.4 °C 8.4 °C 1026 hPa ENE 5.6 km/h 5.6 km/h 63% 0 mm WeatherDisplay:10.37 W/m2 CLR
19:13 15.3 °C 8.5 °C 1026 hPa ENE 5.6 km/h 5.6 km/h 64% 0 mm WeatherDisplay:10.37 W/m2 CLR
19:18 15.1 °C 8.8 °C 1026 hPa ENE 5.6 km/h 5.6 km/h 66% 0 mm WeatherDisplay:10.37 W/m2 CLR
19:23 14.9 °C 8.8 °C 1026 hPa ENE 5.6 km/h 5.6 km/h 67% 0 mm WeatherDisplay:10.37 W/m2 CLR
19:28 14.7 °C 8.8 °C 1026 hPa ENE 5.6 km/h 5.6 km/h 68% 0 mm WeatherDisplay:10.37 W/m2 CLR
19:33 14.5 °C 8.9 °C 1026 hPa ENE 5.6 km/h 5.6 km/h 69% 0 mm WeatherDisplay:10.37 W/m2 CLR
19:38 14.3 °C 8.9 °C 1026 hPa ENE 5.6 km/h 5.6 km/h 70% 0 mm WeatherDisplay:10.37 W/m2 CLR
19:44 14.1 °C 9.1 °C 1026.3 hPa ENE 5.6 km/h 5.6 km/h 72% 0 mm WeatherDisplay:10.37 W/m2 CLR
19:49 13.8 °C 9.1 °C 1026.3 hPa ENE 5.6 km/h 5.6 km/h 73% 0 mm WeatherDisplay:10.37 W/m2 CLR
19:54 13.7 °C 9.1 °C 1026.3 hPa ENE 5.6 km/h 5.6 km/h 74% 0 mm WeatherDisplay:10.37 W/m2 CLR
19:59 13.4 °C 8.7 °C 1026.3 hPa ENE 5.6 km/h 5.6 km/h 73% 0 mm WeatherDisplay:10.37 W/m2 CLR
20:04 13.4 °C 8.4 °C 1026.3 hPa East 3.7 km/h 3.7 km/h 72% 0 mm WeatherDisplay:10.37 W/m2 CLR
20:09 13.3 °C 8.6 °C 1026.3 hPa East 3.7 km/h 3.7 km/h 73% 0 mm WeatherDisplay:10.37 W/m2 CLR
20:14 13.2 °C 8.7 °C 1026.3 hPa East 3.7 km/h 3.7 km/h 74% 0 mm WeatherDisplay:10.37 W/m2 CLR
20:19 13.1 °C 8.8 °C 1026.3 hPa East 3.7 km/h 3.7 km/h 75% 0 mm WeatherDisplay:10.37 W/m2 CLR
20:24 12.9 °C 8.8 °C 1026.3 hPa East 3.7 km/h 3.7 km/h 76% 0 mm WeatherDisplay:10.37 W/m2 CLR
20:29 12.8 °C 8.7 °C 1026.3 hPa East 3.7 km/h 3.7 km/h 76% 0 mm WeatherDisplay:10.37 W/m2 CLR
20:34 12.7 °C 8.6 °C 1026.6 hPa East 3.7 km/h 3.7 km/h 76% 0 mm WeatherDisplay:10.37 W/m2 CLR
20:39 12.7 °C 8.9 °C 1026.6 hPa East 3.7 km/h 3.7 km/h 78% 0 mm WeatherDisplay:10.37 W/m2 CLR
20:44 12.6 °C 8.9 °C 1026.6 hPa East 3.7 km/h 3.7 km/h 78% 0 mm WeatherDisplay:10.37 W/m2 CLR
20:49 12.4 °C 8.9 °C 1026.6 hPa East 3.7 km/h 3.7 km/h 79% 0 mm WeatherDisplay:10.37 W/m2 CLR
20:54 12.3 °C 8.8 °C 1026.6 hPa East 3.7 km/h 3.7 km/h 79% 0 mm WeatherDisplay:10.37 W/m2 CLR
20:59 12.3 °C 8.6 °C 1026.6 hPa East 3.7 km/h 3.7 km/h 78% 0 mm WeatherDisplay:10.37 W/m2 CLR
21:04 12.3 °C 8.9 °C 1026.6 hPa NE 1.9 km/h 1.9 km/h 80% 0 mm WeatherDisplay:10.37 W/m2 CLR
21:09 12.2 °C 8.8 °C 1026.6 hPa NE 1.9 km/h 1.9 km/h 80% 0 mm WeatherDisplay:10.37 W/m2 CLR
21:14 12.1 °C 8.6 °C 1026.6 hPa NE 1.9 km/h 1.9 km/h 79% 0 mm WeatherDisplay:10.37 W/m2 CLR
21:19 12 °C 8.3 °C 1026.6 hPa NE 1.9 km/h 1.9 km/h 78% 0 mm WeatherDisplay:10.37 W/m2 CLR
21:24 12 °C 8.8 °C 1026.6 hPa NE 1.9 km/h 1.9 km/h 81% 0 mm WeatherDisplay:10.37 W/m2 CLR
21:29 11.8 °C 8.7 °C 1027 hPa NE 1.9 km/h 1.9 km/h 81% 0 mm WeatherDisplay:10.37 W/m2 CLR
21:34 11.7 °C 8.7 °C 1027 hPa NE 1.9 km/h 1.9 km/h 82% 0 mm WeatherDisplay:10.37 W/m2 CLR
21:39 11.5 °C 8.6 °C 1027 hPa NE 1.9 km/h 1.9 km/h 82% 0 mm WeatherDisplay:10.37 W/m2 CLR
21:44 11.4 °C 8.6 °C 1027 hPa NE 1.9 km/h 1.9 km/h 83% 0 mm WeatherDisplay:10.37 W/m2 CLR
21:49 11.3 °C 8.7 °C 1027 hPa NE 1.9 km/h 1.9 km/h 84% 0 mm WeatherDisplay:10.37 W/m2 CLR
21:54 11.2 °C 8.6 °C 1027 hPa NE 1.9 km/h 1.9 km/h 84% 0 mm WeatherDisplay:10.37 W/m2 CLR
21:59 11.1 °C 8.5 °C 1027 hPa NE 1.9 km/h 1.9 km/h 84% 0 mm WeatherDisplay:10.37 W/m2 CLR
22:04 11 °C 8.4 °C 1027 hPa NE 5.6 km/h 5.6 km/h 84% 0 mm WeatherDisplay:10.37 W/m2 CLR
22:09 10.9 °C 8.4 °C 1027 hPa NE 5.6 km/h 5.6 km/h 85% 0 mm WeatherDisplay:10.37 W/m2 CLR
22:15 10.8 °C 8.4 °C 1027.3 hPa NE 5.6 km/h 5.6 km/h 85% 0 mm WeatherDisplay:10.37 W/m2 CLR
22:20 10.8 °C 8.3 °C 1027.3 hPa NE 5.6 km/h 5.6 km/h 85% 0 mm WeatherDisplay:10.37 W/m2 CLR
22:25 10.7 °C 8.3 °C 1027 hPa NE 5.6 km/h 5.6 km/h 85% 0 mm WeatherDisplay:10.37 W/m2 CLR
22:30 10.7 °C 8.2 °C 1027 hPa NE 5.6 km/h 5.6 km/h 85% 0 mm WeatherDisplay:10.37 W/m2 CLR
22:35 10.7 °C 8.2 °C 1027 hPa NE 5.6 km/h 5.6 km/h 85% 0 mm WeatherDisplay:10.37 W/m2 CLR
22:40 10.7 °C 8.1 °C 1027 hPa NE 4.8 km/h 4.8 km/h 84% 0 mm WeatherDisplay:10.37 W/m2 CLR
22:45 10.7 °C 8.1 °C 1027 hPa NE 4.8 km/h 4.8 km/h 84% 0 mm WeatherDisplay:10.37 W/m2 CLR
22:50 10.9 °C 8.1 °C 1027 hPa NE 4.8 km/h 4.8 km/h 83% 0 mm WeatherDisplay:10.37 W/m2 CLR
22:55 11 °C 8.1 °C 1027 hPa NE 4.8 km/h 4.8 km/h 82% 0 mm WeatherDisplay:10.37 W/m2 CLR
23:00 11.1 °C 8.2 °C 1027 hPa NE 4.8 km/h 4.8 km/h 82% 0 mm WeatherDisplay:10.37 W/m2 CLR
23:05 11.2 °C 8.1 °C 1027 hPa ENE 3.2 km/h 4.8 km/h 81% 0 mm WeatherDisplay:10.37 W/m2 CLR
23:10 11.3 °C 7.9 °C 1027 hPa East 3.2 km/h 3.2 km/h 80% 0 mm WeatherDisplay:10.37 W/m2 CLR
23:16 11.3 °C 7.9 °C 1027.3 hPa East 3.7 km/h 3.7 km/h 80% 0 mm WeatherDisplay:10.37 W/m2 CLR
23:21 11.2 °C 7.9 °C 1027 hPa East 3.7 km/h 3.7 km/h 80% 0 mm WeatherDisplay:10.37 W/m2 CLR
23:22 11.2 °C 8.1 °C 1027.3 hPa East 3.7 km/h 3.7 km/h 81% 0 mm WeatherDisplay:10.37 W/m2 CLR
23:23 11.2 °C 8.1 °C 1027.3 hPa East 3.7 km/h 3.7 km/h 81% 0 mm WeatherDisplay:10.37 W/m2 CLR
23:28 11.1 °C 7.9 °C 1027.3 hPa East 3.7 km/h 3.7 km/h 81% 0 mm WeatherDisplay:10.37 W/m2 CLR
23:29 11.1 °C 7.9 °C 1027.3 hPa East 3.7 km/h 3.7 km/h 81% 0 mm WeatherDisplay:10.37 W/m2 CLR
23:30 11.1 °C 8.1 °C 1027.3 hPa East 3.7 km/h 3.7 km/h 82% 0 mm WeatherDisplay:10.37 W/m2 CLR
23:31 11.1 °C 8.1 °C 1027.3 hPa East 3.7 km/h 3.7 km/h 82% 0 mm WeatherDisplay:10.37 W/m2 CLR
23:33 11 °C 8.1 °C 1027.3 hPa East 3.7 km/h 3.7 km/h 82% 0 mm WeatherDisplay:10.37 W/m2 CLR
23:38 10.8 °C 8.1 °C 1027 hPa East 3.7 km/h 3.7 km/h 83% 0 mm WeatherDisplay:10.37 W/m2 CLR
23:41 10.7 °C 7.9 °C 1027 hPa East 3.7 km/h 3.7 km/h 83% 0 mm WeatherDisplay:10.37 W/m2 CLR
23:46 10.5 °C 7.9 °C 1027 hPa East 3.7 km/h 3.7 km/h 84% 0 mm WeatherDisplay:10.37 W/m2 CLR
23:51 10.4 °C 7.8 °C 1027 hPa East 3.7 km/h 3.7 km/h 84% 0 mm WeatherDisplay:10.37 W/m2 CLR
23:56 10.4 °C 7.8 °C 1027 hPa East 3.7 km/h 3.7 km/h 84% 0 mm WeatherDisplay:10.37 W/m2 CLR
Piedmont Bend
Compliments of Weather Underground - 4 mb